sensor_id;sensor_type;location;lat;lon;timestamp;temperature;humidity
51615;DHT22;37695;52.960;6.188;2023-02-08T00:00:34;-3.30;99.90
51615;DHT22;37695;52.960;6.188;2023-02-08T00:02:59;-2.10;99.90
51615;DHT22;37695;52.960;6.188;2023-02-08T00:05:25;-2.10;99.90
51615;DHT22;37695;52.960;6.188;2023-02-08T00:07:50;-2.10;99.90
51615;DHT22;37695;52.960;6.188;2023-02-08T00:10:16;-1.70;99.90
51615;DHT22;37695;52.960;6.188;2023-02-08T00:12:42;-2.10;99.90
51615;DHT22;37695;52.960;6.188;2023-02-08T00:15:07;-2.10;99.90
51615;DHT22;37695;52.960;6.188;2023-02-08T00:17:33;-2.10;99.90
51615;DHT22;37695;52.960;6.188;2023-02-08T00:19:58;-2.20;99.90
51615;DHT22;37695;52.960;6.188;2023-02-08T00:22:24;-2.10;99.90
51615;DHT22;37695;52.960;6.188;2023-02-08T00:24:50;-2.20;99.90
51615;DHT22;37695;52.960;6.188;2023-02-08T00:27:16;-2.10;99.90
51615;DHT22;37695;52.960;6.188;2023-02-08T00:29:42;-2.20;99.90
51615;DHT22;37695;52.960;6.188;2023-02-08T00:32:07;-2.20;99.90
51615;DHT22;37695;52.960;6.188;2023-02-08T00:34:33;-2.20;99.90
51615;DHT22;37695;52.960;6.188;2023-02-08T00:37:00;-2.30;99.90
51615;DHT22;37695;52.960;6.188;2023-02-08T00:39:25;-2.30;99.90
51615;DHT22;37695;52.960;6.188;2023-02-08T00:41:51;-2.40;99.90
51615;DHT22;37695;52.960;6.188;2023-02-08T00:44:16;-2.30;99.90
51615;DHT22;37695;52.960;6.188;2023-02-08T00:46:43;-1.50;99.90
51615;DHT22;37695;52.960;6.188;2023-02-08T00:49:08;-2.20;99.90
51615;DHT22;37695;52.960;6.188;2023-02-08T00:51:34;-2.20;99.90
51615;DHT22;37695;52.960;6.188;2023-02-08T00:53:59;-2.20;99.90
51615;DHT22;37695;52.960;6.188;2023-02-08T00:56:25;-2.30;99.90
51615;DHT22;37695;52.960;6.188;2023-02-08T00:58:50;-1.90;99.90
51615;DHT22;37695;52.960;6.188;2023-02-08T01:01:16;-2.20;99.90
51615;DHT22;37695;52.960;6.188;2023-02-08T01:03:42;-2.10;99.90
51615;DHT22;37695;52.960;6.188;2023-02-08T01:06:12;-2.10;99.90
51615;DHT22;37695;52.960;6.188;2023-02-08T01:08:38;-2.10;99.90
51615;DHT22;37695;52.960;6.188;2023-02-08T01:11:06;-2.10;99.90
51615;DHT22;37695;52.960;6.188;2023-02-08T01:13:31;-2.10;99.90
51615;DHT22;37695;52.960;6.188;2023-02-08T01:16:12;-2.10;99.90
51615;DHT22;37695;52.960;6.188;2023-02-08T01:18:40;-2.00;99.90
51615;DHT22;37695;52.960;6.188;2023-02-08T01:21:08;-2.00;99.90
51615;DHT22;37695;52.960;6.188;2023-02-08T01:23:34;-2.00;99.90
51615;DHT22;37695;52.960;6.188;2023-02-08T01:26:00;-2.00;99.90
51615;DHT22;37695;52.960;6.188;2023-02-08T01:28:26;-2.10;99.90
51615;DHT22;37695;52.960;6.188;2023-02-08T01:30:51;-2.20;99.90
51615;DHT22;37695;52.960;6.188;2023-02-08T01:33:17;-2.30;99.90
51615;DHT22;37695;52.960;6.188;2023-02-08T01:35:42;-2.30;99.90
51615;DHT22;37695;52.960;6.188;2023-02-08T01:38:08;-2.20;99.90
51615;DHT22;37695;52.960;6.188;2023-02-08T01:40:33;-2.20;99.90
51615;DHT22;37695;52.960;6.188;2023-02-08T01:42:59;-2.10;99.90
51615;DHT22;37695;52.960;6.188;2023-02-08T01:45:29;-2.20;99.90
51615;DHT22;37695;52.960;6.188;2023-02-08T01:48:12;-2.10;99.90
51615;DHT22;37695;52.960;6.188;2023-02-08T01:50:45;-2.00;99.90
51615;DHT22;37695;52.960;6.188;2023-02-08T01:53:14;-2.00;99.90
51615;DHT22;37695;52.960;6.188;2023-02-08T01:55:46;-1.90;99.90
51615;DHT22;37695;52.960;6.188;2023-02-08T01:58:13;-1.90;99.90
51615;DHT22;37695;52.960;6.188;2023-02-08T02:00:40;-1.90;99.90
51615;DHT22;37695;52.960;6.188;2023-02-08T02:03:06;-1.80;99.90
51615;DHT22;37695;52.960;6.188;2023-02-08T02:05:38;-1.80;99.90
51615;DHT22;37695;52.960;6.188;2023-02-08T02:08:05;-1.80;99.90
51615;DHT22;37695;52.960;6.188;2023-02-08T02:10:33;-1.90;99.90
51615;DHT22;37695;52.960;6.188;2023-02-08T02:13:03;-1.90;99.90
51615;DHT22;37695;52.960;6.188;2023-02-08T02:15:31;-2.00;99.90
51615;DHT22;37695;52.960;6.188;2023-02-08T02:17:57;-2.10;99.90
51615;DHT22;37695;52.960;6.188;2023-02-08T02:20:48;-2.10;99.90
51615;DHT22;37695;52.960;6.188;2023-02-08T02:26:27;-2.20;99.90
51615;DHT22;37695;52.960;6.188;2023-02-08T02:35:07;-2.30;99.90
51615;DHT22;37695;52.960;6.188;2023-02-08T02:37:58;-2.30;99.90
51615;DHT22;37695;52.960;6.188;2023-02-08T02:40:48;-2.30;99.90
51615;DHT22;37695;52.960;6.188;2023-02-08T02:46:40;-2.30;99.90
51615;DHT22;37695;52.960;6.188;2023-02-08T02:52:16;-2.20;99.90
51615;DHT22;37695;52.960;6.188;2023-02-08T02:54:54;-2.20;99.90
51615;DHT22;37695;52.960;6.188;2023-02-08T02:57:26;-2.10;99.90
51615;DHT22;37695;52.960;6.188;2023-02-08T02:59:53;-1.90;99.90
51615;DHT22;37695;52.960;6.188;2023-02-08T03:02:20;-2.20;99.90
51615;DHT22;37695;52.960;6.188;2023-02-08T03:04:49;-2.20;99.90
51615;DHT22;37695;52.960;6.188;2023-02-08T03:07:54;-2.20;99.90
51615;DHT22;37695;52.960;6.188;2023-02-08T03:10:43;-2.10;99.90
51615;DHT22;37695;52.960;6.188;2023-02-08T03:24:25;-2.10;99.90
51615;DHT22;37695;52.960;6.188;2023-02-08T03:26:57;-2.10;99.90
51615;DHT22;37695;52.960;6.188;2023-02-08T03:32:30;-2.10;99.90
51615;DHT22;37695;52.960;6.188;2023-02-08T03:40:30;-2.10;99.90
51615;DHT22;37695;52.960;6.188;2023-02-08T03:42:59;-2.10;99.90
51615;DHT22;37695;52.960;6.188;2023-02-08T03:45:39;-2.00;99.90
51615;DHT22;37695;52.960;6.188;2023-02-08T03:48:07;-2.00;99.90
51615;DHT22;37695;52.960;6.188;2023-02-08T03:50:36;-1.60;99.90
51615;DHT22;37695;52.960;6.188;2023-02-08T03:53:03;-2.00;99.90
51615;DHT22;37695;52.960;6.188;2023-02-08T03:55:33;-2.00;99.90
51615;DHT22;37695;52.960;6.188;2023-02-08T04:00:29;-2.00;99.90
51615;DHT22;37695;52.960;6.188;2023-02-08T04:03:00;-2.00;99.90
51615;DHT22;37695;52.960;6.188;2023-02-08T04:05:27;-1.90;99.90
51615;DHT22;37695;52.960;6.188;2023-02-08T04:07:53;-2.00;99.90
51615;DHT22;37695;52.960;6.188;2023-02-08T04:10:19;-1.90;99.90
51615;DHT22;37695;52.960;6.188;2023-02-08T04:12:46;-1.90;99.90
51615;DHT22;37695;52.960;6.188;2023-02-08T04:15:12;-1.90;99.90
51615;DHT22;37695;52.960;6.188;2023-02-08T04:17:38;-2.00;99.90
51615;DHT22;37695;52.960;6.188;2023-02-08T04:20:03;-2.00;99.90
51615;DHT22;37695;52.960;6.188;2023-02-08T04:22:29;-2.00;99.90
51615;DHT22;37695;52.960;6.188;2023-02-08T04:24:55;-2.10;99.90
51615;DHT22;37695;52.960;6.188;2023-02-08T04:27:21;-2.00;99.90
51615;DHT22;37695;52.960;6.188;2023-02-08T04:29:46;-2.10;99.90
51615;DHT22;37695;52.960;6.188;2023-02-08T04:32:12;-2.00;99.90
51615;DHT22;37695;52.960;6.188;2023-02-08T04:34:38;-2.00;99.90
51615;DHT22;37695;52.960;6.188;2023-02-08T04:37:04;-2.10;99.90
51615;DHT22;37695;52.960;6.188;2023-02-08T04:39:30;-2.20;99.90
51615;DHT22;37695;52.960;6.188;2023-02-08T04:41:55;-2.20;99.90
51615;DHT22;37695;52.960;6.188;2023-02-08T04:44:21;-2.30;99.90
51615;DHT22;37695;52.960;6.188;2023-02-08T04:46:47;-0.90;99.90
51615;DHT22;37695;52.960;6.188;2023-02-08T04:49:12;-2.40;99.90
51615;DHT22;37695;52.960;6.188;2023-02-08T04:51:38;-2.40;99.90
51615;DHT22;37695;52.960;6.188;2023-02-08T04:54:04;-2.40;99.90
51615;DHT22;37695;52.960;6.188;2023-02-08T04:56:29;-2.40;99.90
51615;DHT22;37695;52.960;6.188;2023-02-08T04:58:55;-2.00;99.90
51615;DHT22;37695;52.960;6.188;2023-02-08T05:01:20;-2.40;99.90
51615;DHT22;37695;52.960;6.188;2023-02-08T05:03:46;-2.40;99.90
51615;DHT22;37695;52.960;6.188;2023-02-08T05:06:11;-2.40;99.90
51615;DHT22;37695;52.960;6.188;2023-02-08T05:08:37;-2.40;99.90
51615;DHT22;37695;52.960;6.188;2023-02-08T05:11:03;-2.40;99.90
51615;DHT22;37695;52.960;6.188;2023-02-08T05:13:28;-2.40;99.90
51615;DHT22;37695;52.960;6.188;2023-02-08T05:15:54;-2.50;99.90
51615;DHT22;37695;52.960;6.188;2023-02-08T05:18:20;-2.50;99.90
51615;DHT22;37695;52.960;6.188;2023-02-08T05:20:53;-2.60;99.90
51615;DHT22;37695;52.960;6.188;2023-02-08T05:23:19;-2.60;99.90
51615;DHT22;37695;52.960;6.188;2023-02-08T05:25:44;-2.70;99.90
51615;DHT22;37695;52.960;6.188;2023-02-08T05:28:10;-2.70;99.90
51615;DHT22;37695;52.960;6.188;2023-02-08T05:30:37;-2.80;99.90
51615;DHT22;37695;52.960;6.188;2023-02-08T05:33:03;-2.80;99.90
51615;DHT22;37695;52.960;6.188;2023-02-08T05:35:28;-2.80;99.90
51615;DHT22;37695;52.960;6.188;2023-02-08T05:37:54;-2.90;99.90
51615;DHT22;37695;52.960;6.188;2023-02-08T05:40:19;-2.90;99.90
51615;DHT22;37695;52.960;6.188;2023-02-08T05:42:45;-2.90;99.90
51615;DHT22;37695;52.960;6.188;2023-02-08T05:45:13;-2.90;99.90
51615;DHT22;37695;52.960;6.188;2023-02-08T05:47:38;-2.90;99.90
51615;DHT22;37695;52.960;6.188;2023-02-08T05:50:04;-2.90;99.90
51615;DHT22;37695;52.960;6.188;2023-02-08T05:52:31;-1.80;99.90
51615;DHT22;37695;52.960;6.188;2023-02-08T05:54:56;-2.90;99.90
51615;DHT22;37695;52.960;6.188;2023-02-08T05:57:22;-2.90;99.90
51615;DHT22;37695;52.960;6.188;2023-02-08T05:59:47;-2.90;99.90
51615;DHT22;37695;52.960;6.188;2023-02-08T06:02:13;-2.90;99.90
51615;DHT22;37695;52.960;6.188;2023-02-08T06:04:39;-2.90;99.90
51615;DHT22;37695;52.960;6.188;2023-02-08T06:07:05;-2.90;99.90
51615;DHT22;37695;52.960;6.188;2023-02-08T06:09:30;-2.90;99.90
51615;DHT22;37695;52.960;6.188;2023-02-08T06:11:56;-2.90;99.90
51615;DHT22;37695;52.960;6.188;2023-02-08T06:14:21;-2.90;99.90
51615;DHT22;37695;52.960;6.188;2023-02-08T06:16:47;-2.80;99.90
51615;DHT22;37695;52.960;6.188;2023-02-08T06:19:12;-2.90;99.90
51615;DHT22;37695;52.960;6.188;2023-02-08T06:21:38;-2.90;99.90
51615;DHT22;37695;52.960;6.188;2023-02-08T06:24:04;-3.00;99.90
51615;DHT22;37695;52.960;6.188;2023-02-08T06:26:32;-3.00;99.90
51615;DHT22;37695;52.960;6.188;2023-02-08T06:28:58;-3.00;99.90
51615;DHT22;37695;52.960;6.188;2023-02-08T06:31:24;-3.00;99.90
51615;DHT22;37695;52.960;6.188;2023-02-08T06:33:49;-2.90;99.90
51615;DHT22;37695;52.960;6.188;2023-02-08T06:36:15;-3.00;99.90
51615;DHT22;37695;52.960;6.188;2023-02-08T06:38:41;-3.00;99.90
51615;DHT22;37695;52.960;6.188;2023-02-08T06:41:06;-3.00;99.90
51615;DHT22;37695;52.960;6.188;2023-02-08T06:43:32;-2.90;99.90
51615;DHT22;37695;52.960;6.188;2023-02-08T06:45:57;-2.90;99.90
51615;DHT22;37695;52.960;6.188;2023-02-08T06:48:23;-2.90;99.90
51615;DHT22;37695;52.960;6.188;2023-02-08T06:50:51;-2.80;99.90
51615;DHT22;37695;52.960;6.188;2023-02-08T06:53:18;-2.80;99.90
51615;DHT22;37695;52.960;6.188;2023-02-08T06:55:48;-2.80;99.90
51615;DHT22;37695;52.960;6.188;2023-02-08T06:58:13;-2.80;99.90
51615;DHT22;37695;52.960;6.188;2023-02-08T07:00:39;-2.70;99.90
51615;DHT22;37695;52.960;6.188;2023-02-08T07:03:04;-2.80;99.90
51615;DHT22;37695;52.960;6.188;2023-02-08T07:05:33;-2.70;99.90
51615;DHT22;37695;52.960;6.188;2023-02-08T07:07:59;-2.70;99.90
51615;DHT22;37695;52.960;6.188;2023-02-08T07:10:24;-2.70;99.90
51615;DHT22;37695;52.960;6.188;2023-02-08T07:12:50;-2.60;99.90
51615;DHT22;37695;52.960;6.188;2023-02-08T07:15:15;-2.60;99.90
51615;DHT22;37695;52.960;6.188;2023-02-08T07:17:41;-2.60;99.90
51615;DHT22;37695;52.960;6.188;2023-02-08T07:20:07;-2.60;99.90
51615;DHT22;37695;52.960;6.188;2023-02-08T07:22:33;-2.50;99.90
51615;DHT22;37695;52.960;6.188;2023-02-08T07:24:59;-2.50;99.90
51615;DHT22;37695;52.960;6.188;2023-02-08T07:27:24;-2.50;99.90
51615;DHT22;37695;52.960;6.188;2023-02-08T07:29:50;-2.50;99.90
51615;DHT22;37695;52.960;6.188;2023-02-08T07:32:15;-2.40;99.90
51615;DHT22;37695;52.960;6.188;2023-02-08T07:34:41;-2.40;99.90
51615;DHT22;37695;52.960;6.188;2023-02-08T07:37:07;-2.40;99.90
51615;DHT22;37695;52.960;6.188;2023-02-08T07:39:32;-2.40;99.90
51615;DHT22;37695;52.960;6.188;2023-02-08T07:41:58;-2.40;99.90
51615;DHT22;37695;52.960;6.188;2023-02-08T07:44:24;-2.40;99.90
51615;DHT22;37695;52.960;6.188;2023-02-08T07:46:49;-2.40;99.90
51615;DHT22;37695;52.960;6.188;2023-02-08T07:49:15;-2.30;99.90
51615;DHT22;37695;52.960;6.188;2023-02-08T07:51:41;-2.40;99.90
51615;DHT22;37695;52.960;6.188;2023-02-08T07:54:06;-2.40;99.90
51615;DHT22;37695;52.960;6.188;2023-02-08T07:56:32;-2.30;99.90
51615;DHT22;37695;52.960;6.188;2023-02-08T07:58:57;-2.30;99.90
51615;DHT22;37695;52.960;6.188;2023-02-08T08:01:23;-2.30;99.90
51615;DHT22;37695;52.960;6.188;2023-02-08T08:03:50;-2.20;99.90
51615;DHT22;37695;52.960;6.188;2023-02-08T08:06:17;-2.10;99.90
51615;DHT22;37695;52.960;6.188;2023-02-08T08:08:42;-2.00;99.90
51615;DHT22;37695;52.960;6.188;2023-02-08T08:11:12;-2.00;99.90
51615;DHT22;37695;52.960;6.188;2023-02-08T08:13:38;-2.00;99.90
51615;DHT22;37695;52.960;6.188;2023-02-08T08:16:04;-1.90;99.90
51615;DHT22;37695;52.960;6.188;2023-02-08T08:18:29;-1.80;99.90
51615;DHT22;37695;52.960;6.188;2023-02-08T08:20:55;-1.70;99.90
51615;DHT22;37695;52.960;6.188;2023-02-08T08:23:21;-1.70;99.90
51615;DHT22;37695;52.960;6.188;2023-02-08T08:25:48;-1.60;99.90
51615;DHT22;37695;52.960;6.188;2023-02-08T08:28:14;-1.60;99.90
51615;DHT22;37695;52.960;6.188;2023-02-08T08:30:43;-1.60;99.90
51615;DHT22;37695;52.960;6.188;2023-02-08T08:33:09;-1.50;99.90
51615;DHT22;37695;52.960;6.188;2023-02-08T08:35:35;-1.40;99.90
51615;DHT22;37695;52.960;6.188;2023-02-08T08:38:00;-1.40;99.90
51615;DHT22;37695;52.960;6.188;2023-02-08T08:40:26;-1.30;99.90
51615;DHT22;37695;52.960;6.188;2023-02-08T08:42:52;-1.20;99.90
51615;DHT22;37695;52.960;6.188;2023-02-08T08:45:17;-1.20;99.90
51615;DHT22;37695;52.960;6.188;2023-02-08T08:47:43;-1.10;99.90
51615;DHT22;37695;52.960;6.188;2023-02-08T08:50:08;-1.10;99.90
51615;DHT22;37695;52.960;6.188;2023-02-08T08:52:34;-0.90;99.90
51615;DHT22;37695;52.960;6.188;2023-02-08T08:54:59;-0.60;99.90
51615;DHT22;37695;52.960;6.188;2023-02-08T08:57:25;-0.90;99.90
51615;DHT22;37695;52.960;6.188;2023-02-08T08:59:51;-0.80;99.90
51615;DHT22;37695;52.960;6.188;2023-02-08T09:02:16;-0.80;99.90
51615;DHT22;37695;52.960;6.188;2023-02-08T09:04:42;-0.70;99.90
51615;DHT22;37695;52.960;6.188;2023-02-08T09:07:08;-0.60;99.90
51615;DHT22;37695;52.960;6.188;2023-02-08T09:09:35;-0.50;99.90
51615;DHT22;37695;52.960;6.188;2023-02-08T09:12:01;-0.50;99.90
51615;DHT22;37695;52.960;6.188;2023-02-08T09:14:27;-0.40;99.90
51615;DHT22;37695;52.960;6.188;2023-02-08T09:16:52;-0.30;99.90
51615;DHT22;37695;52.960;6.188;2023-02-08T09:19:18;-0.20;99.90
51615;DHT22;37695;52.960;6.188;2023-02-08T09:21:44;-0.10;99.90
51615;DHT22;37695;52.960;6.188;2023-02-08T09:24:10;0.20;99.90
51615;DHT22;37695;52.960;6.188;2023-02-08T09:26:35;0.10;99.90
51615;DHT22;37695;52.960;6.188;2023-02-08T09:29:01;0.20;99.90
51615;DHT22;37695;52.960;6.188;2023-02-08T09:31:32;0.30;99.90
51615;DHT22;37695;52.960;6.188;2023-02-08T09:33:59;0.40;99.90
51615;DHT22;37695;52.960;6.188;2023-02-08T09:36:27;0.50;99.90
51615;DHT22;37695;52.960;6.188;2023-02-08T09:38:56;0.90;99.90
51615;DHT22;37695;52.960;6.188;2023-02-08T09:41:44;0.80;99.90
51615;DHT22;37695;52.960;6.188;2023-02-08T09:46:44;0.90;99.90
51615;DHT22;37695;52.960;6.188;2023-02-08T09:49:17;1.20;99.90
51615;DHT22;37695;52.960;6.188;2023-02-08T09:51:54;1.10;99.90
51615;DHT22;37695;52.960;6.188;2023-02-08T09:57:01;1.30;99.90
51615;DHT22;37695;52.960;6.188;2023-02-08T09:59:31;1.40;99.90
51615;DHT22;37695;52.960;6.188;2023-02-08T10:02:22;1.50;99.90
51615;DHT22;37695;52.960;6.188;2023-02-08T10:05:09;1.50;99.90
51615;DHT22;37695;52.960;6.188;2023-02-08T10:07:36;1.60;99.90
51615;DHT22;37695;52.960;6.188;2023-02-08T10:10:06;1.70;99.90
51615;DHT22;37695;52.960;6.188;2023-02-08T10:15:15;1.90;99.90
51615;DHT22;37695;52.960;6.188;2023-02-08T10:18:07;2.00;99.90
51615;DHT22;37695;52.960;6.188;2023-02-08T10:36:53;2.60;99.90
51615;DHT22;37695;52.960;6.188;2023-02-08T10:39:31;2.70;99.90
51615;DHT22;37695;52.960;6.188;2023-02-08T10:41:58;2.80;99.90
51615;DHT22;37695;52.960;6.188;2023-02-08T10:47:45;2.90;99.90
51615;DHT22;37695;52.960;6.188;2023-02-08T10:50:53;3.00;99.90
51615;DHT22;37695;52.960;6.188;2023-02-08T10:53:14;3.10;99.90
51615;DHT22;37695;52.960;6.188;2023-02-08T10:55:42;3.30;99.90
51615;DHT22;37695;52.960;6.188;2023-02-08T10:58:14;3.30;99.90
51615;DHT22;37695;52.960;6.188;2023-02-08T11:00:41;3.30;99.90
51615;DHT22;37695;52.960;6.188;2023-02-08T11:03:22;3.40;99.90
51615;DHT22;37695;52.960;6.188;2023-02-08T11:05:49;3.40;99.90
51615;DHT22;37695;52.960;6.188;2023-02-08T11:08:22;3.50;99.90
51615;DHT22;37695;52.960;6.188;2023-02-08T11:11:08;3.60;99.90
51615;DHT22;37695;52.960;6.188;2023-02-08T11:13:42;3.60;99.90
51615;DHT22;37695;52.960;6.188;2023-02-08T11:16:20;3.60;99.90
51615;DHT22;37695;52.960;6.188;2023-02-08T11:18:48;3.70;99.90
51615;DHT22;37695;52.960;6.188;2023-02-08T11:21:47;3.80;99.90
51615;DHT22;37695;52.960;6.188;2023-02-08T11:24:53;3.80;99.90
51615;DHT22;37695;52.960;6.188;2023-02-08T11:27:29;3.90;99.90
51615;DHT22;37695;52.960;6.188;2023-02-08T11:30:19;4.00;99.90
51615;DHT22;37695;52.960;6.188;2023-02-08T11:32:48;4.00;99.90
51615;DHT22;37695;52.960;6.188;2023-02-08T11:37:52;4.20;99.90
51615;DHT22;37695;52.960;6.188;2023-02-08T11:40:24;4.20;99.90
51615;DHT22;37695;52.960;6.188;2023-02-08T11:42:52;4.30;99.90
51615;DHT22;37695;52.960;6.188;2023-02-08T11:45:22;4.30;99.90
51615;DHT22;37695;52.960;6.188;2023-02-08T11:47:49;4.30;99.90
51615;DHT22;37695;52.960;6.188;2023-02-08T11:50:26;4.40;99.90
51615;DHT22;37695;52.960;6.188;2023-02-08T11:52:58;4.50;99.90
51615;DHT22;37695;52.960;6.188;2023-02-08T11:55:28;4.50;99.90
51615;DHT22;37695;52.960;6.188;2023-02-08T12:00:38;4.60;99.90
51615;DHT22;37695;52.960;6.188;2023-02-08T12:03:11;4.70;99.90
51615;DHT22;37695;52.960;6.188;2023-02-08T12:08:56;4.80;99.90
51615;DHT22;37695;52.960;6.188;2023-02-08T12:11:43;4.90;99.90
51615;DHT22;37695;52.960;6.188;2023-02-08T12:14:20;4.90;99.90
51615;DHT22;37695;52.960;6.188;2023-02-08T12:19:46;5.00;99.90
51615;DHT22;37695;52.960;6.188;2023-02-08T12:22:25;5.00;99.90
51615;DHT22;37695;52.960;6.188;2023-02-08T12:31:03;5.10;99.90
51615;DHT22;37695;52.960;6.188;2023-02-08T12:33:49;5.10;99.90
51615;DHT22;37695;52.960;6.188;2023-02-08T12:36:38;5.10;99.90
51615;DHT22;37695;52.960;6.188;2023-02-08T12:44:52;5.20;99.90
51615;DHT22;37695;52.960;6.188;2023-02-08T12:47:28;5.20;99.90
51615;DHT22;37695;52.960;6.188;2023-02-08T12:50:06;5.30;99.90
51615;DHT22;37695;52.960;6.188;2023-02-08T12:52:40;5.30;99.90
51615;DHT22;37695;52.960;6.188;2023-02-08T12:55:27;5.30;99.90
51615;DHT22;37695;52.960;6.188;2023-02-08T12:57:58;5.30;99.90
51615;DHT22;37695;52.960;6.188;2023-02-08T13:00:36;5.40;99.90
51615;DHT22;37695;52.960;6.188;2023-02-08T13:03:26;5.40;99.90
51615;DHT22;37695;52.960;6.188;2023-02-08T13:05:56;5.50;99.90
51615;DHT22;37695;52.960;6.188;2023-02-08T13:08:48;5.50;99.90
51615;DHT22;37695;52.960;6.188;2023-02-08T13:11:39;5.50;99.90
51615;DHT22;37695;52.960;6.188;2023-02-08T13:14:32;5.60;99.90
51615;DHT22;37695;52.960;6.188;2023-02-08T13:17:10;5.60;99.90
51615;DHT22;37695;52.960;6.188;2023-02-08T13:22:21;5.60;99.90
51615;DHT22;37695;52.960;6.188;2023-02-08T13:24:48;5.60;99.90
51615;DHT22;37695;52.960;6.188;2023-02-08T13:27:17;5.60;99.90
51615;DHT22;37695;52.960;6.188;2023-02-08T13:29:46;5.60;99.90
51615;DHT22;37695;52.960;6.188;2023-02-08T13:32:25;5.70;99.90
51615;DHT22;37695;52.960;6.188;2023-02-08T13:35:00;5.70;99.90
51615;DHT22;37695;52.960;6.188;2023-02-08T13:37:29;5.70;99.90
51615;DHT22;37695;52.960;6.188;2023-02-08T13:40:21;5.80;99.90
51615;DHT22;37695;52.960;6.188;2023-02-08T13:43:24;5.80;99.90
51615;DHT22;37695;52.960;6.188;2023-02-08T13:45:58;5.80;99.90
51615;DHT22;37695;52.960;6.188;2023-02-08T13:48:24;5.90;99.90
51615;DHT22;37695;52.960;6.188;2023-02-08T13:50:55;5.90;99.90
51615;DHT22;37695;52.960;6.188;2023-02-08T13:56:02;6.00;99.90
51615;DHT22;37695;52.960;6.188;2023-02-08T14:01:18;6.10;99.90
51615;DHT22;37695;52.960;6.188;2023-02-08T14:03:43;6.10;99.90
51615;DHT22;37695;52.960;6.188;2023-02-08T14:06:22;6.10;99.90
51615;DHT22;37695;52.960;6.188;2023-02-08T14:09:04;6.20;99.90
51615;DHT22;37695;52.960;6.188;2023-02-08T14:11:50;6.20;99.90
51615;DHT22;37695;52.960;6.188;2023-02-08T14:14:27;6.20;99.90
51615;DHT22;37695;52.960;6.188;2023-02-08T14:19:33;6.30;99.90
51615;DHT22;37695;52.960;6.188;2023-02-08T14:22:04;6.30;99.90
51615;DHT22;37695;52.960;6.188;2023-02-08T14:24:35;6.30;99.90
51615;DHT22;37695;52.960;6.188;2023-02-08T14:27:28;6.30;99.90
51615;DHT22;37695;52.960;6.188;2023-02-08T14:30:19;6.40;99.90
51615;DHT22;37695;52.960;6.188;2023-02-08T14:33:09;6.40;99.90
51615;DHT22;37695;52.960;6.188;2023-02-08T14:35:51;6.40;99.90
51615;DHT22;37695;52.960;6.188;2023-02-08T14:40:57;6.40;99.90
51615;DHT22;37695;52.960;6.188;2023-02-08T14:43:31;6.40;99.90
51615;DHT22;37695;52.960;6.188;2023-02-08T14:45:57;6.40;99.70
51615;DHT22;37695;52.960;6.188;2023-02-08T14:48:47;6.40;99.90
51615;DHT22;37695;52.960;6.188;2023-02-08T14:51:16;6.40;99.90
51615;DHT22;37695;52.960;6.188;2023-02-08T14:53:51;6.50;99.90
51615;DHT22;37695;52.960;6.188;2023-02-08T14:56:25;6.50;99.90
51615;DHT22;37695;52.960;6.188;2023-02-08T14:58:57;6.40;99.90
51615;DHT22;37695;52.960;6.188;2023-02-08T15:03:53;6.40;99.90
51615;DHT22;37695;52.960;6.188;2023-02-08T15:09:23;6.40;99.90
51615;DHT22;37695;52.960;6.188;2023-02-08T15:12:06;6.40;99.90
51615;DHT22;37695;52.960;6.188;2023-02-08T15:14:38;6.40;99.90
51615;DHT22;37695;52.960;6.188;2023-02-08T15:17:05;6.40;99.90
51615;DHT22;37695;52.960;6.188;2023-02-08T15:19:33;6.40;99.90
51615;DHT22;37695;52.960;6.188;2023-02-08T15:24:58;6.30;99.90
51615;DHT22;37695;52.960;6.188;2023-02-08T15:27:31;6.30;99.90
51615;DHT22;37695;52.960;6.188;2023-02-08T15:29:57;6.30;99.90
51615;DHT22;37695;52.960;6.188;2023-02-08T15:32:25;6.20;99.90
51615;DHT22;37695;52.960;6.188;2023-02-08T15:34:57;6.20;99.90
51615;DHT22;37695;52.960;6.188;2023-02-08T15:37:23;6.10;99.90
51615;DHT22;37695;52.960;6.188;2023-02-08T15:39:54;6.00;99.90
51615;DHT22;37695;52.960;6.188;2023-02-08T15:42:25;6.00;99.90
51615;DHT22;37695;52.960;6.188;2023-02-08T15:44:51;5.90;99.90
51615;DHT22;37695;52.960;6.188;2023-02-08T15:47:37;5.90;99.90
51615;DHT22;37695;52.960;6.188;2023-02-08T15:50:06;5.90;99.80
51615;DHT22;37695;52.960;6.188;2023-02-08T15:52:34;5.90;99.90
51615;DHT22;37695;52.960;6.188;2023-02-08T15:55:00;6.00;99.90
51615;DHT22;37695;52.960;6.188;2023-02-08T15:57:37;6.10;99.90
51615;DHT22;37695;52.960;6.188;2023-02-08T16:00:07;5.90;99.90
51615;DHT22;37695;52.960;6.188;2023-02-08T16:02:37;5.90;99.90
51615;DHT22;37695;52.960;6.188;2023-02-08T16:05:21;5.90;99.90
51615;DHT22;37695;52.960;6.188;2023-02-08T16:07:48;5.80;99.90
51615;DHT22;37695;52.960;6.188;2023-02-08T16:10:39;5.80;99.90
51615;DHT22;37695;52.960;6.188;2023-02-08T16:13:19;5.70;99.00
51615;DHT22;37695;52.960;6.188;2023-02-08T16:15:48;5.50;99.50
51615;DHT22;37695;52.960;6.188;2023-02-08T16:18:40;5.40;99.80
51615;DHT22;37695;52.960;6.188;2023-02-08T16:21:19;5.30;98.90
51615;DHT22;37695;52.960;6.188;2023-02-08T16:26:40;4.90;99.20
51615;DHT22;37695;52.960;6.188;2023-02-08T16:29:16;4.80;99.90
51615;DHT22;37695;52.960;6.188;2023-02-08T16:31:44;4.60;99.90
51615;DHT22;37695;52.960;6.188;2023-02-08T16:34:18;4.50;99.90
51615;DHT22;37695;52.960;6.188;2023-02-08T16:36:49;4.40;99.90
51615;DHT22;37695;52.960;6.188;2023-02-08T16:39:22;4.30;99.90
51615;DHT22;37695;52.960;6.188;2023-02-08T16:42:00;4.20;99.90
51615;DHT22;37695;52.960;6.188;2023-02-08T16:44:29;4.10;99.90
51615;DHT22;37695;52.960;6.188;2023-02-08T16:46:56;4.00;99.90
51615;DHT22;37695;52.960;6.188;2023-02-08T16:49:22;3.90;99.90
51615;DHT22;37695;52.960;6.188;2023-02-08T16:51:48;3.90;99.90
51615;DHT22;37695;52.960;6.188;2023-02-08T16:54:17;3.90;99.90
51615;DHT22;37695;52.960;6.188;2023-02-08T16:56:44;3.80;99.80
51615;DHT22;37695;52.960;6.188;2023-02-08T16:59:14;3.80;99.60
51615;DHT22;37695;52.960;6.188;2023-02-08T17:01:40;3.80;99.80
51615;DHT22;37695;52.960;6.188;2023-02-08T17:04:11;3.70;99.80
51615;DHT22;37695;52.960;6.188;2023-02-08T17:06:38;3.70;99.70
51615;DHT22;37695;52.960;6.188;2023-02-08T17:09:05;3.60;99.80
51615;DHT22;37695;52.960;6.188;2023-02-08T17:11:32;3.50;99.90
51615;DHT22;37695;52.960;6.188;2023-02-08T17:13:58;3.40;99.90
51615;DHT22;37695;52.960;6.188;2023-02-08T17:16:29;3.40;99.90
51615;DHT22;37695;52.960;6.188;2023-02-08T17:18:56;3.30;99.90
51615;DHT22;37695;52.960;6.188;2023-02-08T17:21:21;3.20;99.90
51615;DHT22;37695;52.960;6.188;2023-02-08T17:23:48;3.20;99.90
51615;DHT22;37695;52.960;6.188;2023-02-08T17:26:20;3.20;99.90
51615;DHT22;37695;52.960;6.188;2023-02-08T17:28:52;3.10;99.90
51615;DHT22;37695;52.960;6.188;2023-02-08T17:31:18;3.10;99.90
51615;DHT22;37695;52.960;6.188;2023-02-08T17:33:44;3.00;99.90
51615;DHT22;37695;52.960;6.188;2023-02-08T17:36:11;3.00;99.90
51615;DHT22;37695;52.960;6.188;2023-02-08T17:38:38;2.90;99.90
51615;DHT22;37695;52.960;6.188;2023-02-08T17:41:09;2.90;99.90
51615;DHT22;37695;52.960;6.188;2023-02-08T17:43:36;3.20;99.90
51615;DHT22;37695;52.960;6.188;2023-02-08T17:46:15;2.80;99.90
51615;DHT22;37695;52.960;6.188;2023-02-08T17:48:41;2.80;99.90